Time;durP1;ratioP1;P1;durP2;ratioP2;P2;SDS_P1;SDS_P2;PMS_P1;PMS_P2;Temp;Humidity;BMP_temperature;BMP_pressure;BME280_temperature;BME280_humidity;BME280_pressure;Samples;Min_cycle;Max_cycle;Signal;HPM_P1;HPM_P2
2022/04/16 00:00:56;;;;;;;14.25;11.15;;;11.50;92.90;;;;;;5053792;28;20027;-75
2022/04/16 00:03:23;;;;;;;15.88;11.85;;;11.40;93.00;;;;;;5053701;28;20029;-75
2022/04/16 00:05:53;;;;;;;15.80;11.70;;;11.50;93.00;;;;;;5053394;28;20032;-75
2022/04/16 00:08:20;;;;;;;14.40;11.00;;;11.50;93.00;;;;;;5053455;28;20033;-75
2022/04/16 00:10:47;;;;;;;15.15;10.90;;;11.40;93.10;;;;;;5053123;28;20047;-75
2022/04/16 00:13:13;;;;;;;15.93;10.65;;;11.30;93.20;;;;;;5053577;28;20041;-75
2022/04/16 00:15:39;;;;;;;15.07;11.60;;;11.40;93.20;;;;;;5053309;28;20379;-75
2022/04/16 00:18:04;;;;;;;16.05;11.93;;;11.30;93.30;;;;;;5053256;28;20109;-75
2022/04/16 00:20:33;;;;;;;17.20;11.48;;;11.20;93.40;;;;;;5053579;28;20104;-75
2022/04/16 00:22:58;;;;;;;14.90;11.18;;;11.10;93.70;;;;;;5053224;28;20480;-75
2022/04/16 00:25:24;;;;;;;12.60;11.30;;;11.10;93.80;;;;;;5053263;28;20033;-75
2022/04/16 00:27:50;;;;;;;15.50;11.45;;;11.10;93.70;;;;;;5053184;28;20027;-75
2022/04/16 00:30:17;;;;;;;15.45;11.07;;;11.10;93.70;;;;;;5053340;28;20021;-75
2022/04/16 00:32:44;;;;;;;15.77;11.10;;;11.20;93.70;;;;;;5053295;28;20094;-75
2022/04/16 00:35:10;;;;;;;14.18;10.60;;;11.20;93.60;;;;;;5053239;28;20029;-75
2022/04/16 00:37:35;;;;;;;15.77;10.57;;;11.40;93.40;;;;;;5053139;28;20029;-75
2022/04/16 00:40:01;;;;;;;15.52;11.15;;;11.40;93.30;;;;;;5053045;28;20388;-75
2022/04/16 00:42:39;;;;;;;18.15;11.38;;;11.50;93.20;;;;;;5053004;28;20037;-75
2022/04/16 00:45:05;;;;;;;15.52;10.80;;;11.60;93.00;;;;;;5053083;28;20029;-75
2022/04/16 00:47:31;;;;;;;15.77;11.50;;;11.60;92.90;;;;;;5052888;28;20032;-75
2022/04/16 00:49:57;;;;;;;15.82;11.82;;;11.60;92.80;;;;;;5053179;28;20021;-75
2022/04/16 00:52:22;;;;;;;15.23;10.70;;;11.60;92.80;;;;;;5052974;28;20033;-75
2022/04/16 00:54:50;;;;;;;15.05;11.18;;;11.60;92.80;;;;;;5053013;28;20375;-75
2022/04/16 00:57:17;;;;;;;18.27;12.55;;;11.60;92.80;;;;;;5052768;28;20032;-75
2022/04/16 00:59:43;;;;;;;15.77;11.13;;;11.60;92.80;;;;;;5053258;28;20467;-75
2022/04/16 01:02:10;;;;;;;16.08;12.85;;;11.50;92.80;;;;;;5057038;28;20029;-75
2022/04/16 01:04:35;;;;;;;16.95;12.60;;;11.50;92.80;;;;;;5056988;28;20049;-75
2022/04/16 01:07:01;;;;;;;16.95;13.50;;;11.40;92.80;;;;;;5056832;28;20048;-75
2022/04/16 01:09:27;;;;;;;16.90;13.90;;;11.30;93.00;;;;;;5056518;28;20552;-75
2022/04/16 01:11:52;;;;;;;18.88;13.07;;;10.90;93.50;;;;;;5056848;28;20043;-75
2022/04/16 01:14:19;;;;;;;18.00;12.75;;;10.80;94.00;;;;;;5056867;28;20376;-75
2022/04/16 01:16:45;;;;;;;19.63;13.15;;;10.80;94.20;;;;;;5056531;28;20480;-75
2022/04/16 01:19:11;;;;;;;16.75;12.65;;;10.80;94.10;;;;;;5056286;28;20094;-75
2022/04/16 01:21:37;;;;;;;17.92;13.52;;;10.80;94.20;;;;;;5056829;28;20116;-75
2022/04/16 01:24:05;;;;;;;19.55;15.23;;;10.80;94.10;;;;;;5056525;28;20380;-75
2022/04/16 01:26:31;;;;;;;17.77;14.35;;;10.80;94.00;;;;;;5056653;28;20025;-75
2022/04/16 01:28:56;;;;;;;18.75;14.27;;;10.70;94.20;;;;;;5056113;28;20082;-75
2022/04/16 01:31:22;;;;;;;22.52;14.93;;;10.70;94.40;;;;;;5056552;28;20025;-75
2022/04/16 01:33:48;;;;;;;21.67;15.50;;;10.70;94.50;;;;;;5056183;28;20029;-75
2022/04/16 01:36:13;;;;;;;19.95;15.30;;;10.70;94.50;;;;;;5056527;28;20117;-75
2022/04/16 01:38:39;;;;;;;22.67;15.50;;;10.60;94.60;;;;;;5056503;28;20112;-75
2022/04/16 01:41:05;;;;;;;24.80;15.80;;;10.60;94.80;;;;;;5056188;28;20464;-75
2022/04/16 01:43:31;;;;;;;22.42;16.45;;;10.50;94.80;;;;;;5056266;28;20036;-75
2022/04/16 01:45:56;;;;;;;22.35;16.85;;;10.50;94.90;;;;;;5056254;28;20032;-75
2022/04/16 01:48:27;;;;;;;19.77;16.73;;;10.30;95.10;;;;;;5056230;28;20554;-75
2022/04/16 01:50:54;;;;;;;22.33;16.65;;;10.30;95.40;;;;;;5056304;28;20021;-75
2022/04/16 01:53:20;;;;;;;21.67;17.15;;;10.20;95.50;;;;;;5055655;28;20029;-75
2022/04/16 01:55:46;;;;;;;22.40;16.42;;;10.00;95.90;;;;;;5055747;28;20094;-75
2022/04/16 01:58:13;;;;;;;21.15;15.82;;;10.00;96.10;;;;;;5056057;28;20550;-74
2022/04/16 02:00:39;;;;;;;20.63;16.50;;;10.00;96.30;;;;;;5056065;28;20057;-75
2022/04/16 02:03:05;;;;;;;21.27;16.77;;;9.90;96.30;;;;;;5055873;28;20434;-75
2022/04/16 02:05:31;;;;;;;21.85;17.02;;;9.90;96.50;;;;;;5055699;28;20070;-75
2022/04/16 02:07:56;;;;;;;22.25;16.80;;;9.80;96.70;;;;;;5055697;28;20345;-75
2022/04/16 02:10:22;;;;;;;24.90;17.70;;;9.80;96.90;;;;;;5055336;28;20085;-75
2022/04/16 02:12:47;;;;;;;20.58;16.02;;;9.70;96.90;;;;;;5054707;28;20029;-75
2022/04/16 02:15:13;;;;;;;25.05;16.83;;;9.80;97.00;;;;;;5055664;28;20495;-75
2022/04/16 02:17:40;;;;;;;24.33;17.13;;;9.80;96.80;;;;;;5055556;28;20036;-75
2022/04/16 02:20:08;;;;;;;24.83;17.70;;;9.80;96.90;;;;;;5055633;28;20051;-75
2022/04/16 02:22:43;;;;;;;24.38;17.30;;;9.70;97.00;;;;;;5055721;28;20060;-75
2022/04/16 02:25:10;;;;;;;21.95;16.38;;;9.60;97.20;;;;;;5055313;28;20098;-75
2022/04/16 02:27:36;;;;;;;24.27;17.63;;;9.60;97.40;;;;;;5055401;28;20385;-75
2022/04/16 02:30:09;;;;;;;26.55;19.25;;;9.60;97.40;;;;;;5055328;28;20025;-75
2022/04/16 02:32:42;;;;;;;23.15;17.65;;;9.60;97.50;;;;;;5055013;28;20037;-75
2022/04/16 02:35:09;;;;;;;24.02;17.13;;;9.50;97.70;;;;;;5055150;28;20025;-75
2022/04/16 02:37:35;;;;;;;25.00;16.70;;;9.50;98.10;;;;;;5054861;28;20043;-75
2022/04/16 02:40:01;;;;;;;23.40;17.67;;;9.50;97.90;;;;;;5055077;28;20451;-75
2022/04/16 02:42:27;;;;;;;20.10;16.15;;;9.40;98.00;;;;;;5054927;28;20064;-75
2022/04/16 02:47:37;;;;;;;25.23;17.50;;;9.60;97.90;;;;;;5054793;28;20051;-75
2022/04/16 02:50:03;;;;;;;22.42;17.30;;;9.70;97.70;;;;;;5055023;28;20500;-75
2022/04/16 02:52:37;;;;;;;21.85;17.70;;;9.70;97.60;;;;;;5054651;28;20124;-75
2022/04/16 02:55:04;;;;;;;26.13;18.10;;;9.80;97.40;;;;;;5054835;28;20028;-75
2022/04/16 02:57:31;;;;;;;23.17;18.48;;;9.80;97.40;;;;;;5054599;28;20033;-75
2022/04/16 02:59:57;;;;;;;23.65;17.75;;;9.70;97.60;;;;;;5054764;28;20438;-75
2022/04/16 03:02:23;;;;;;;28.60;17.80;;;9.60;97.80;;;;;;5054295;28;20025;-75
2022/04/16 03:04:54;;;;;;;25.13;18.23;;;9.60;97.80;;;;;;5054813;28;20033;-75
2022/04/16 03:07:19;;;;;;;21.88;17.75;;;9.50;98.10;;;;;;5054707;28;20384;-75
2022/04/16 03:09:45;;;;;;;27.65;18.67;;;9.40;98.30;;;;;;5054455;28;20040;-75
2022/04/16 03:12:11;;;;;;;29.35;19.75;;;9.40;98.30;;;;;;5054300;28;20044;-75
2022/04/16 03:17:32;;;;;;;25.27;18.95;;;9.30;99.00;;;;;;5054415;28;20068;-75
2022/04/16 03:20:06;;;;;;;24.05;17.83;;;9.30;98.80;;;;;;5054613;28;20021;-75
2022/04/16 03:22:35;;;;;;;27.02;19.48;;;9.30;98.90;;;;;;5054468;28;20029;-75
2022/04/16 03:25:07;;;;;;;27.75;19.58;;;9.40;98.80;;;;;;5054332;28;20024;-75
2022/04/16 03:27:33;;;;;;;24.70;19.10;;;9.20;99.00;;;;;;5054077;28;20043;-74
2022/04/16 03:29:58;;;;;;;27.38;19.13;;;9.20;99.20;;;;;;5054165;28;20020;-75
2022/04/16 03:32:24;;;;;;;26.15;19.35;;;9.20;99.30;;;;;;5053917;28;20043;-75
2022/04/16 03:34:49;;;;;;;22.13;18.90;;;9.10;99.60;;;;;;5054200;28;20067;-75
2022/04/16 03:37:15;;;;;;;26.45;19.38;;;9.20;99.60;;;;;;5053956;28;20052;-75
2022/04/16 03:39:41;;;;;;;32.13;20.23;;;9.20;99.60;;;;;;5053724;28;20024;-74
2022/04/16 03:42:07;;;;;;;31.52;21.00;;;9.10;99.60;;;;;;5054100;28;20025;-75
2022/04/16 03:44:32;;;;;;;29.30;21.35;;;9.00;99.80;;;;;;5053962;28;20021;-75
2022/04/16 03:46:58;;;;;;;29.27;19.35;;;9.00;99.90;;;;;;5053771;28;20053;-75
2022/04/16 03:49:23;;;;;;;29.33;21.17;;;8.90;99.90;;;;;;5054001;28;20036;-75
2022/04/16 03:51:49;;;;;;;32.03;22.55;;;8.80;99.90;;;;;;5053413;28;20051;-75
2022/04/16 04:00:00;;;;;;;29.42;21.10;;;8.50;99.90;;;;;;5053662;28;20040;-75
2022/04/16 04:02:30;;;;;;;32.03;21.70;;;8.50;99.90;;;;;;5053437;28;20373;-75
2022/04/16 04:04:56;;;;;;;30.95;20.90;;;8.50;99.90;;;;;;5053700;28;20037;-74
2022/04/16 04:07:22;;;;;;;29.33;22.42;;;8.50;99.90;;;;;;5053696;28;20021;-75
2022/04/16 04:09:48;;;;;;;28.85;22.02;;;8.50;99.90;;;;;;5053225;28;20480;-75
2022/04/16 04:12:15;;;;;;;27.02;21.48;;;8.50;99.90;;;;;;5053398;28;20083;-75
2022/04/16 04:14:42;;;;;;;31.23;22.58;;;8.50;99.90;;;;;;5053594;28;20021;-74
2022/04/16 04:17:08;;;;;;;30.63;22.45;;;8.50;99.90;;;;;;5053416;28;20031;-74
2022/04/16 04:19:35;;;;;;;29.80;21.88;;;8.50;99.90;;;;;;5053232;28;20078;-75
2022/04/16 04:22:03;;;;;;;32.35;22.60;;;8.60;99.90;;;;;;5053555;28;20025;-75
2022/04/16 04:24:28;;;;;;;28.65;22.30;;;8.60;99.90;;;;;;5053380;28;20017;-75
2022/04/16 04:26:58;;;;;;;28.20;22.35;;;8.60;99.90;;;;;;5053549;28;20028;-75
2022/04/16 04:29:24;;;;;;;28.17;21.38;;;8.50;99.90;;;;;;5053273;28;20042;-75
2022/04/16 04:31:50;;;;;;;30.75;22.17;;;8.50;99.90;;;;;;5052713;28;20495;-75
2022/04/16 04:34:15;;;;;;;34.85;24.10;;;8.60;99.90;;;;;;5053024;28;20057;-75
2022/04/16 04:36:41;;;;;;;31.98;22.40;;;8.60;99.90;;;;;;5052899;28;20021;-76
2022/04/16 04:39:06;;;;;;;24.30;18.90;;;8.70;99.90;;;;;;5053431;28;20108;-75
2022/04/16 04:41:32;;;;;;;28.20;18.55;;;8.80;99.90;;;;;;5053259;28;20032;-75
2022/04/16 04:43:57;;;;;;;27.38;20.40;;;9.10;99.90;;;;;;5052545;28;20021;-75
2022/04/16 04:46:23;;;;;;;28.08;22.75;;;9.20;99.90;;;;;;5053289;28;20391;-75
2022/04/16 04:48:49;;;;;;;31.10;23.08;;;9.10;99.90;;;;;;5053184;28;20056;-75
2022/04/16 04:51:14;;;;;;;27.48;21.45;;;8.90;99.90;;;;;;5052826;28;20488;-75
2022/04/16 04:53:40;;;;;;;31.75;22.95;;;8.80;99.90;;;;;;5053064;28;20040;-75
2022/04/16 04:56:05;;;;;;;31.23;22.48;;;8.90;99.90;;;;;;5053085;28;20021;-75
2022/04/16 04:58:31;;;;;;;28.10;21.92;;;8.90;99.90;;;;;;5052762;28;20031;-75
2022/04/16 05:00:57;;;;;;;32.67;23.77;;;9.00;99.90;;;;;;5052725;28;20472;-75
2022/04/16 05:03:23;;;;;;;30.98;23.33;;;9.10;99.90;;;;;;5052744;28;20096;-75
2022/04/16 05:05:49;;;;;;;27.55;21.60;;;9.10;99.90;;;;;;5053092;28;20056;-75
2022/04/16 05:08:14;;;;;;;33.45;22.95;;;9.00;99.90;;;;;;5053021;28;20508;-75
2022/04/16 05:10:40;;;;;;;28.23;22.23;;;9.10;99.90;;;;;;5052585;28;20049;-75
2022/04/16 05:13:06;;;;;;;29.33;21.50;;;9.20;99.90;;;;;;5052541;28;20029;-75
2022/04/16 05:15:31;;;;;;;29.85;22.88;;;9.30;99.90;;;;;;5052987;28;20029;-75
2022/04/16 05:17:57;;;;;;;33.42;23.40;;;9.30;99.90;;;;;;5052606;28;20118;-75
2022/04/16 05:20:22;;;;;;;32.67;25.20;;;9.40;99.90;;;;;;5052407;28;20037;-75
2022/04/16 05:22:48;;;;;;;32.38;24.25;;;9.20;99.90;;;;;;5052137;28;20044;-75
2022/04/16 05:25:14;;;;;;;33.92;24.48;;;9.10;99.90;;;;;;5052659;28;20044;-75
2022/04/16 05:27:40;;;;;;;35.55;24.58;;;8.90;99.90;;;;;;5052251;28;20357;-75
2022/04/16 05:30:13;;;;;;;35.08;24.73;;;8.90;99.90;;;;;;5052411;28;20104;-76
2022/04/16 05:32:42;;;;;;;33.30;24.73;;;9.00;99.90;;;;;;5052134;28;20127;-76
2022/04/16 05:35:10;;;;;;;31.58;22.23;;;9.10;99.90;;;;;;5052608;28;20434;-74
2022/04/16 05:37:36;;;;;;;31.60;21.52;;;9.30;99.90;;;;;;5052353;28;20395;-76
2022/04/16 05:40:03;;;;;;;33.15;23.33;;;9.40;99.90;;;;;;5052592;28;20021;-76
2022/04/16 05:42:29;;;;;;;30.75;22.67;;;9.60;99.90;;;;;;5052631;28;20021;-77
2022/04/16 05:45:04;;;;;;;30.48;23.77;;;9.60;99.90;;;;;;5052432;28;20595;-77
2022/04/16 05:47:29;;;;;;;28.23;21.00;;;9.60;99.90;;;;;;5058865;28;20021;-77
2022/04/16 05:49:55;;;;;;;29.45;22.10;;;9.70;99.90;;;;;;5075711;28;20032;-77
2022/04/16 05:52:22;;;;;;;30.55;23.33;;;9.90;99.90;;;;;;5076077;28;20075;-77
2022/04/16 05:54:48;;;;;;;29.90;22.23;;;10.00;99.90;;;;;;5076015;28;20048;-76
2022/04/16 05:57:14;;;;;;;31.23;23.65;;;10.00;99.90;;;;;;5075846;28;20028;-76
2022/04/16 05:59:40;;;;;;;28.92;22.65;;;10.10;99.90;;;;;;5075562;28;20039;-75
2022/04/16 06:02:06;;;;;;;30.02;22.65;;;10.20;99.90;;;;;;5075764;28;20024;-75
2022/04/16 06:04:31;;;;;;;27.73;22.48;;;10.30;99.90;;;;;;5075874;28;20074;-76
2022/04/16 06:06:57;;;;;;;32.10;23.20;;;10.40;99.90;;;;;;5075436;28;20103;-75
2022/04/16 06:09:22;;;;;;;30.70;24.02;;;10.30;99.90;;;;;;5075525;28;20048;-75
2022/04/16 06:11:49;;;;;;;36.67;26.48;;;10.30;99.90;;;;;;5075771;28;20029;-75
2022/04/16 06:14:15;;;;;;;30.95;23.48;;;10.20;99.90;;;;;;5075437;28;20560;-75
2022/04/16 06:16:40;;;;;;;28.60;22.10;;;10.20;99.90;;;;;;5075326;28;20467;-75
2022/04/16 06:19:06;;;;;;;28.15;20.77;;;10.30;99.90;;;;;;5075592;28;20024;-75
2022/04/16 06:21:31;;;;;;;32.67;24.42;;;10.50;99.90;;;;;;5075483;28;20048;-75
2022/04/16 06:23:58;;;;;;;32.92;25.92;;;10.60;99.90;;;;;;5075392;28;20062;-75
2022/04/16 06:26:27;;;;;;;27.83;20.50;;;10.60;99.90;;;;;;5075337;28;20028;-75
2022/04/16 06:28:53;;;;;;;31.27;24.38;;;10.60;99.90;;;;;;5075189;28;20078;-75
2022/04/16 06:31:18;;;;;;;33.63;24.65;;;10.70;99.90;;;;;;5075437;28;20463;-75
2022/04/16 06:33:44;;;;;;;33.42;23.88;;;10.70;99.90;;;;;;5075122;28;20028;-76
2022/04/16 06:36:09;;;;;;;31.60;24.48;;;10.60;99.90;;;;;;5075406;28;20023;-75
2022/04/16 06:38:35;;;;;;;27.30;22.05;;;10.60;99.90;;;;;;5075066;28;20081;-74
2022/04/16 06:41:00;;;;;;;28.33;22.80;;;10.70;99.90;;;;;;5075250;28;20020;-75
2022/04/16 06:43:26;;;;;;;25.90;20.33;;;10.80;99.90;;;;;;5074982;28;20023;-76
2022/04/16 06:45:51;;;;;;;29.02;21.67;;;10.80;99.90;;;;;;5074654;28;20065;-75
2022/04/16 06:48:17;;;;;;;27.90;21.05;;;10.90;99.90;;;;;;5074764;28;20016;-75
2022/04/16 06:50:43;;;;;;;23.80;19.65;;;11.00;99.90;;;;;;5075123;28;20027;-76
2022/04/16 06:53:08;;;;;;;25.98;19.20;;;11.10;99.90;;;;;;5074764;28;20480;-75
2022/04/16 06:55:34;;;;;;;24.17;19.10;;;11.10;99.90;;;;;;5074503;28;20024;-75
2022/04/16 06:57:59;;;;;;;22.70;18.02;;;11.20;99.60;;;;;;5074703;28;20036;-75
2022/04/16 07:00:25;;;;;;;22.17;17.25;;;11.30;99.20;;;;;;5074957;28;20025;-75
2022/04/16 07:02:50;;;;;;;20.55;15.85;;;11.30;99.10;;;;;;5074778;28;20024;-76
2022/04/16 07:05:16;;;;;;;25.20;17.95;;;11.30;99.20;;;;;;5074628;28;20460;-76
2022/04/16 07:07:42;;;;;;;26.27;19.15;;;11.50;98.90;;;;;;5074500;28;20062;-76
2022/04/16 07:10:07;;;;;;;23.08;17.25;;;11.50;98.50;;;;;;5074323;28;20044;-76
2022/04/16 07:12:33;;;;;;;23.50;18.48;;;11.50;98.40;;;;;;5074105;28;20060;-76
2022/04/16 07:14:58;;;;;;;24.67;17.50;;;11.50;98.20;;;;;;5074288;28;20031;-77
2022/04/16 07:17:24;;;;;;;22.27;17.63;;;11.50;98.20;;;;;;5074582;28;20038;-78
2022/04/16 07:19:50;;;;;;;23.67;16.83;;;11.60;98.20;;;;;;5074333;28;20375;-74
2022/04/16 07:22:19;;;;;;;21.80;17.25;;;11.60;97.90;;;;;;5074194;28;20054;-74
2022/04/16 07:24:45;;;;;;;25.13;19.15;;;11.70;97.70;;;;;;5074483;28;20375;-74
2022/04/16 07:27:11;;;;;;;24.15;17.17;;;11.70;97.80;;;;;;5073730;28;20045;-74
2022/04/16 07:29:37;;;;;;;24.58;17.88;;;11.80;97.60;;;;;;5074282;28;20029;-74
2022/04/16 07:32:03;;;;;;;23.50;16.90;;;11.80;97.40;;;;;;5073933;28;20028;-74
2022/04/16 07:34:29;;;;;;;23.13;17.58;;;11.80;97.20;;;;;;5073682;28;20028;-74
2022/04/16 07:36:55;;;;;;;23.20;16.60;;;11.80;97.10;;;;;;5074237;28;20037;-74
2022/04/16 07:39:21;;;;;;;22.77;17.77;;;11.80;97.10;;;;;;5074090;28;20021;-74
2022/04/16 07:41:47;;;;;;;21.08;17.17;;;11.90;97.00;;;;;;5073459;28;20025;-74
2022/04/16 07:44:13;;;;;;;22.52;16.15;;;11.90;97.00;;;;;;5073678;28;20387;-74
2022/04/16 07:46:38;;;;;;;19.42;15.45;;;12.00;97.30;;;;;;5074051;28;20031;-74
2022/04/16 07:49:05;;;;;;;21.83;15.52;;;12.10;96.60;;;;;;5073648;28;20021;-74
2022/04/16 07:51:30;;;;;;;22.65;16.70;;;12.30;96.40;;;;;;5073482;28;20494;-74
2022/04/16 07:53:57;;;;;;;18.60;14.48;;;12.30;96.50;;;;;;5073602;28;20020;-74
2022/04/16 07:56:23;;;;;;;24.25;16.40;;;12.40;96.20;;;;;;5073491;28;20103;-74
2022/04/16 07:58:50;;;;;;;22.63;16.42;;;12.40;95.80;;;;;;5073441;28;20056;-74
2022/04/16 08:01:16;;;;;;;25.35;16.83;;;12.40;96.30;;;;;;5073358;28;20032;-74
2022/04/16 08:03:42;;;;;;;21.20;15.30;;;12.60;96.20;;;;;;5073649;28;20031;-75
2022/04/16 08:06:07;;;;;;;18.88;14.55;;;12.70;96.10;;;;;;5073048;28;20100;-74
2022/04/16 08:08:33;;;;;;;21.20;16.23;;;12.80;95.60;;;;;;5073257;28;20036;-74
2022/04/16 08:10:59;;;;;;;21.33;15.43;;;13.00;95.60;;;;;;5072356;28;20041;-74
2022/04/16 08:13:25;;;;;;;22.38;15.50;;;13.10;95.50;;;;;;5073430;28;20036;-75
2022/04/16 08:15:50;;;;;;;18.75;14.07;;;13.10;95.50;;;;;;5073654;28;20040;-74
2022/04/16 08:18:16;;;;;;;18.98;14.55;;;13.30;94.80;;;;;;5072898;28;20055;-75
2022/04/16 08:20:42;;;;;;;18.58;14.93;;;13.40;94.30;;;;;;5073494;28;20021;-74
2022/04/16 08:23:08;;;;;;;18.33;14.40;;;13.50;93.90;;;;;;5073167;28;20383;-75
2022/04/16 08:28:00;;;;;;;17.42;13.27;;;13.50;94.20;;;;;;5073095;28;20021;-75
2022/04/16 08:30:26;;;;;;;17.38;13.75;;;13.60;93.80;;;;;;5073297;28;20036;-74
2022/04/16 08:32:52;;;;;;;20.75;14.38;;;13.80;94.00;;;;;;5073007;28;20033;-75
2022/04/16 08:35:19;;;;;;;17.35;12.93;;;13.90;93.20;;;;;;5073101;28;20071;-75
2022/04/16 08:37:45;;;;;;;20.05;12.20;;;14.00;93.00;;;;;;5073045;28;20029;-75
2022/04/16 08:40:12;;;;;;;15.45;11.60;;;14.10;92.30;;;;;;5073282;28;20100;-74
2022/04/16 08:42:39;;;;;;;15.20;11.60;;;14.20;91.60;;;;;;5073269;28;20029;-75
2022/04/16 08:45:07;;;;;;;17.75;12.15;;;14.30;91.50;;;;;;5072906;28;20025;-75
2022/04/16 08:47:32;;;;;;;17.15;11.85;;;14.40;91.20;;;;;;5073215;28;20075;-75
2022/04/16 08:50:03;;;;;;;12.95;10.68;;;14.40;91.00;;;;;;5072868;28;20057;-75
2022/04/16 08:52:32;;;;;;;18.02;11.18;;;14.50;91.10;;;;;;5072512;28;20060;-75
2022/04/16 08:54:59;;;;;;;14.80;11.18;;;14.60;91.00;;;;;;5073142;28;20052;-75
2022/04/16 08:57:25;;;;;;;18.73;12.07;;;14.60;91.20;;;;;;5072915;28;20021;-75
2022/04/16 08:59:52;;;;;;;15.55;12.07;;;14.80;91.00;;;;;;5073136;28;20073;-74
2022/04/16 09:02:22;;;;;;;15.45;11.45;;;14.90;90.80;;;;;;5072624;28;20475;-75
2022/04/16 09:04:49;;;;;;;14.80;10.60;;;15.00;90.60;;;;;;5072676;28;20032;-75
2022/04/16 09:07:15;;;;;;;14.57;11.50;;;15.10;89.30;;;;;;5072781;28;20020;-75
2022/04/16 09:09:42;;;;;;;13.43;10.63;;;14.90;87.60;;;;;;5072792;28;20040;-74
2022/04/16 09:12:18;;;;;;;14.05;10.15;;;14.70;88.80;;;;;;5072706;28;20025;-74
2022/04/16 09:14:45;;;;;;;13.70;10.95;;;14.50;89.20;;;;;;5073037;28;20029;-75
2022/04/16 09:17:16;;;;;;;14.77;11.45;;;14.60;89.70;;;;;;5072738;28;20021;-75
2022/04/16 09:19:42;;;;;;;14.90;10.60;;;14.70;89.40;;;;;;5072411;28;20467;-75
2022/04/16 09:22:10;;;;;;;16.80;11.25;;;14.80;88.60;;;;;;5075324;28;20031;-75
2022/04/16 09:24:48;;;;;;;13.32;9.95;;;15.00;88.70;;;;;;5076735;28;20024;-75
2022/04/16 09:27:14;;;;;;;15.75;11.07;;;15.20;85.60;;;;;;5076763;28;20074;-75
2022/04/16 09:29:40;;;;;;;14.48;10.85;;;15.10;84.50;;;;;;5076638;28;20031;-75
2022/04/16 09:32:06;;;;;;;12.80;10.20;;;15.10;85.30;;;;;;5076185;28;20150;-75
2022/04/16 09:34:32;;;;;;;12.85;10.18;;;15.10;87.10;;;;;;5076076;28;20463;-75
2022/04/16 09:36:58;;;;;;;13.55;9.73;;;15.20;85.90;;;;;;5076137;28;20039;-75
2022/04/16 09:39:25;;;;;;;11.70;9.02;;;15.30;83.80;;;;;;5076319;28;20025;-75
2022/04/16 09:41:54;;;;;;;12.13;9.55;;;15.40;81.80;;;;;;5076160;28;20017;-75
2022/04/16 09:44:21;;;;;;;11.25;9.20;;;15.50;82.90;;;;;;5076043;28;20020;-75
2022/04/16 09:46:48;;;;;;;13.48;10.57;;;15.60;83.30;;;;;;5076006;28;20051;-74
2022/04/16 09:49:16;;;;;;;14.57;9.50;;;15.70;83.70;;;;;;5075987;28;20051;-75
2022/04/16 09:51:46;;;;;;;11.75;10.07;;;15.80;81.90;;;;;;5076008;28;20024;-74
2022/04/16 09:54:13;;;;;;;16.75;11.05;;;15.80;81.70;;;;;;5075939;28;20050;-75
2022/04/16 09:56:42;;;;;;;12.43;9.45;;;15.70;81.50;;;;;;5075875;28;20025;-74
2022/04/16 09:59:09;;;;;;;11.30;9.07;;;15.60;81.60;;;;;;5075884;28;20048;-75
2022/04/16 10:01:42;;;;;;;10.75;8.77;;;15.70;83.40;;;;;;5075870;28;20028;-75
2022/04/16 10:04:08;;;;;;;13.27;10.55;;;15.90;82.50;;;;;;5075984;28;20036;-75
2022/04/16 10:06:34;;;;;;;9.32;8.02;;;16.20;81.40;;;;;;5075898;28;20024;-75
2022/04/16 10:09:13;;;;;;;8.38;7.45;;;16.20;78.80;;;;;;5075678;28;20028;-75
2022/04/16 10:14:39;;;;;;;11.48;7.55;;;16.50;77.80;;;;;;5053790;28;20119;-74
2022/04/16 10:17:27;;;;;;;12.00;7.80;;;16.70;76.00;;;;;;5075452;28;20099;-74
2022/04/16 10:19:56;;;;;;;8.65;7.05;;;16.80;74.70;;;;;;5075224;28;20024;-74
2022/04/16 10:22:26;;;;;;;11.00;6.68;;;16.70;73.90;;;;;;5075232;28;20026;-74
2022/04/16 10:24:56;;;;;;;9.43;7.18;;;16.70;73.90;;;;;;5075531;28;20040;-74
2022/04/16 10:27:38;;;;;;;11.50;6.38;;;16.60;73.20;;;;;;5075203;28;20032;-74
2022/04/16 10:30:09;;;;;;;12.73;6.78;;;16.50;74.80;;;;;;5075550;28;20025;-74
2022/04/16 10:32:43;;;;;;;10.85;6.38;;;16.60;71.60;;;;;;5074562;28;20044;-74
2022/04/16 10:35:14;;;;;;;7.55;6.57;;;16.70;71.50;;;;;;5074823;28;20025;-74
2022/04/16 10:37:41;;;;;;;8.05;5.90;;;16.80;71.00;;;;;;5075116;28;20467;-74
2022/04/16 10:40:25;;;;;;;7.95;5.18;;;16.80;69.60;;;;;;5074894;28;20044;-74
2022/04/16 10:42:52;;;;;;;5.88;5.28;;;16.80;69.60;;;;;;5074539;28;20059;-73
2022/04/16 10:45:18;;;;;;;9.15;5.90;;;16.90;70.70;;;;;;5075155;28;20142;-73
2022/04/16 10:47:44;;;;;;;6.50;4.90;;;17.00;71.00;;;;;;5074994;28;20473;-74
2022/04/16 10:50:14;;;;;;;9.02;4.15;;;17.10;67.60;;;;;;5074959;28;20018;-73
2022/04/16 10:52:51;;;;;;;5.35;3.90;;;17.10;66.30;;;;;;5074773;28;20033;-74
2022/04/16 10:55:16;;;;;;;4.85;3.53;;;16.90;64.90;;;;;;5074386;28;20048;-80
2022/04/16 10:57:42;;;;;;;7.22;3.17;;;16.80;65.70;;;;;;5074845;28;20082;-78
2022/04/16 11:00:14;;;;;;;4.55;2.85;;;16.90;65.90;;;;;;5074645;28;20021;-76
2022/04/16 11:02:40;;;;;;;5.20;3.43;;;17.00;63.80;;;;;;5072359;28;20028;-76
2022/04/16 11:05:08;;;;;;;4.85;3.40;;;17.20;64.40;;;;;;5072646;28;20027;-76
2022/04/16 11:07:36;;;;;;;5.03;3.53;;;17.30;64.60;;;;;;5073295;28;20020;-76
2022/04/16 11:10:09;;;;;;;4.75;3.63;;;17.40;64.30;;;;;;5073297;28;20059;-76
2022/04/16 11:12:41;;;;;;;;;;;17.40;63.00;;;;;;5074208;28;20028;-76
2022/04/16 11:15:26;;;;;;;5.10;3.55;;;17.40;63.80;;;;;;5073744;28;20003;-76
2022/04/16 11:17:56;;;;;;;3.90;3.15;;;17.60;63.60;;;;;;5074302;28;20559;-76
2022/04/16 11:20:22;;;;;;;3.35;3.00;;;17.60;60.20;;;;;;5073835;28;20052;-76
2022/04/16 11:22:47;;;;;;;4.43;3.17;;;17.70;61.80;;;;;;5074268;28;20407;-77
2022/04/16 11:25:13;;;;;;;3.28;2.85;;;17.80;60.60;;;;;;5074337;28;20020;-77
2022/04/16 11:36:01;;;;;;;3.63;2.92;;;18.10;61.10;;;;;;5074046;28;20078;-77
2022/04/16 11:38:31;;;;;;;4.25;3.05;;;18.10;59.50;;;;;;5074239;28;20383;-77
2022/04/16 11:40:59;;;;;;;3.97;3.10;;;18.20;58.90;;;;;;5073655;28;20070;-76
2022/04/16 11:43:25;;;;;;;4.07;3.00;;;18.30;60.20;;;;;;5073939;28;20059;-77
2022/04/16 11:45:51;;;;;;;5.25;3.10;;;18.40;59.00;;;;;;5073956;28;20040;-77
2022/04/16 11:48:17;;;;;;;3.85;3.45;;;18.50;57.60;;;;;;5073646;28;20146;-77
2022/04/16 11:50:43;;;;;;;5.25;2.72;;;18.60;58.40;;;;;;5073759;28;20063;-77
2022/04/16 11:53:12;;;;;;;3.33;2.55;;;18.60;56.60;;;;;;5073841;28;20111;-77
2022/04/16 11:55:48;;;;;;;4.28;2.80;;;18.60;55.60;;;;;;5073542;28;20021;-77
2022/04/16 11:58:15;;;;;;;5.35;3.05;;;18.60;57.20;;;;;;5073726;28;20031;-77
2022/04/16 12:00:57;;;;;;;4.60;2.70;;;18.70;57.60;;;;;;5073767;28;20048;-77
2022/04/16 12:03:34;;;;;;;3.45;2.58;;;18.70;56.30;;;;;;5073777;28;20027;-76
2022/04/16 12:05:59;;;;;;;4.25;2.70;;;18.70;54.40;;;;;;5073409;28;20464;-76
2022/04/16 12:08:25;;;;;;;4.80;3.08;;;18.90;54.80;;;;;;5073503;28;20032;-76
2022/04/16 12:10:50;;;;;;;4.35;2.70;;;18.90;55.70;;;;;;5073136;28;20131;-76
2022/04/16 12:13:17;;;;;;;2.50;2.25;;;18.90;54.90;;;;;;5073553;28;20440;-76
2022/04/16 12:15:45;;;;;;;2.78;2.10;;;18.90;54.40;;;;;;5073351;28;20054;-76
2022/04/16 12:18:22;;;;;;;3.95;2.28;;;18.90;52.20;;;;;;5073476;28;20036;-76
2022/04/16 12:20:48;;;;;;;3.70;2.92;;;19.00;51.70;;;;;;5073333;28;20059;-76
2022/04/16 12:23:23;;;;;;;3.97;2.55;;;19.00;50.70;;;;;;5073414;28;20439;-76
2022/04/16 12:25:50;;;;;;;6.00;3.05;;;19.00;52.90;;;;;;5073157;28;20468;-76
2022/04/16 12:28:16;;;;;;;3.40;2.50;;;19.00;52.70;;;;;;5072940;28;20063;-76
2022/04/16 12:30:50;;;;;;;4.97;3.10;;;19.00;51.60;;;;;;5073054;28;20450;-74
2022/04/16 12:33:16;;;;;;;3.40;3.03;;;19.00;51.70;;;;;;5072848;28;20090;-74
2022/04/16 12:35:47;;;;;;;4.13;3.17;;;19.00;53.20;;;;;;5073444;28;20063;-74
2022/04/16 12:38:15;;;;;;;4.68;2.75;;;19.00;51.10;;;;;;5073325;28;20052;-75
2022/04/16 12:40:42;;;;;;;3.63;2.63;;;19.00;49.70;;;;;;5073152;28;20017;-75
2022/04/16 12:43:08;;;;;;;3.78;3.00;;;19.10;50.00;;;;;;5072892;28;20025;-75
2022/04/16 12:45:34;;;;;;;4.50;2.47;;;19.10;48.40;;;;;;5072289;28;20391;-75
2022/04/16 12:48:00;;;;;;;2.90;2.58;;;19.10;48.90;;;;;;5072500;28;20025;-75
2022/04/16 12:50:27;;;;;;;5.25;2.30;;;19.10;47.70;;;;;;5073196;28;20024;-75
2022/04/16 12:52:53;;;;;;;3.08;2.05;;;19.20;47.80;;;;;;5072988;28;20041;-75
2022/04/16 12:55:19;;;;;;;6.13;2.42;;;19.30;46.00;;;;;;5073067;28;20464;-75
2022/04/16 12:57:44;;;;;;;4.45;2.65;;;19.30;47.20;;;;;;5076822;28;20698;-75